DucheSS Of Scandinavia — OUZI2 — position and weather

sailwx.info

Track history (hours):
 
Tides and Currents Weather Stations Pressure Air Temp Water Temp Dewpoint Dewpoint Depression Visibility Wind Speed Wind Dir Waves Ship Positions

DucheSS Of Scandinavia

Operator: DFDS A/S

Last reported at 2015-May-24 20:33 UTC. Time now 2015-May-24 21:20 UTC.
Position N 59°06' E 010°14'.

Length 134 m; draft 5.2 m.

Type: Passenger vessel. MMSI: 219002929.

Date/timePositionNaut miles runAvg speedWind from/ knotsBaromVisibWave heightAir tempDewpointWater temp
2015-May-24 20:33N 59°06' E 010°14'0 0.0
2015-May-24 19:33N 59°06' E 010°14'0 0.0
2015-May-24 18:33N 59°06' E 010°14'0 0.0
2015-May-24 17:33N 59°06' E 010°14'1 1.4
2015-May-24 16:33N 59°08' E 010°14'1010.1
2015-May-24 15:33N 59°01' E 010°28'1515.1
2015-May-24 14:33N 59°00' E 010°57'8 7.9
2015-May-24 13:33N 58°56' E 011°10'1111.0
2015-May-24 12:33N 59°01' E 010°51'1716.9
2015-May-24 11:33N 59°01' E 010°18'7 6.8
2015-May-24 10:33N 59°08' E 010°14'7 7.0
2015-May-24 09:33N 59°01' E 010°20'1515.2
2015-May-24 08:33N 59°01' E 010°49'1212.0
2015-May-24 07:33N 58°56' E 011°10'8 8.5
2015-May-24 06:33N 59°00' E 010°56'1615.9
2015-May-24 05:33N 59°01' E 010°25'9 9.0
2015-May-24 04:33N 59°08' E 010°14'1 1.4
2015-May-24 03:33N 59°06' E 010°14'0 0.0
2015-May-24 02:33N 59°06' E 010°14'0 0.0
2015-May-24 01:33N 59°06' E 010°14'0 0.0
2015-May-24 00:33N 59°06' E 010°14'0 0.0
2015-May-23 23:33N 59°06' E 010°14'0 0.0
2015-May-23 22:33N 59°06' E 010°14'0 0.0
2015-May-23 21:33N 59°06' E 010°14'0 0.0
2015-May-23 20:33N 59°06' E 010°14'0 0.0
2015-May-23 19:33N 59°06' E 010°14'0 0.0
2015-May-23 18:33N 59°06' E 010°14'0 0.0
2015-May-23 17:33N 59°06' E 010°14'1 1.4
2015-May-23 16:33N 59°08' E 010°14'10 9.6
2015-May-23 15:33N 59°01' E 010°27'1514.6
2015-May-23 14:33N 59°00' E 010°55'9 8.9
2015-May-23 13:33N 58°56' E 011°10'1212.1
2015-May-23 12:33N 59°01' E 010°49'1616.2
2015-May-23 11:33N 59°01' E 010°18'7 6.6
2015-May-23 10:33N 59°08' E 010°14'8 8.3
2015-May-23 09:33N 59°01' E 010°23'1616.1
2015-May-23 08:34N 59°00' E 010°55'9 9.2
2015-May-23 07:33N 58°56' E 011°10'1211.9
2015-May-23 06:34N 59°01' E 010°49'1716.6
2015-May-23 05:33N 59°01' E 010°17'6 6.4
2015-May-23 04:33N 59°08' E 010°14'1 1.4
2015-May-23 03:33N 59°06' E 010°14'0 0.0
2015-May-23 02:32N 59°06' E 010°14'0 0.0
2015-May-23 01:33N 59°06' E 010°14'0 0.0
2015-May-23 00:25N 59°06' E 010°14'0 0.0
2015-May-22 23:31N 59°06' E 010°14'0 0.0
2015-May-22 22:32N 59°06' E 010°14'0 0.0
2015-May-22 21:30N 59°06' E 010°14'0 0.0
2015-May-22 20:33N 59°06' E 010°14'0 0.0
2015-May-22 19:31N 59°06' E 010°14'0 0.0
2015-May-22 18:33N 59°06' E 010°14'0 0.0
2015-May-22 17:33N 59°06' E 010°14'1 1.0
2015-May-22 16:33N 59°07' E 010°14'1111.0
2015-May-22 15:33N 59°00' E 010°31'1413.9
2015-May-22 14:34N 59°00' E 010°57'8 7.8
2015-May-22 13:34N 58°56' E 011°10'1212.3
2015-May-22 12:33N 59°02' E 010°49'1616.5
2015-May-22 11:33N 59°01' E 010°17'6 6.4
2015-May-22 10:34N 59°08' E 010°14'7 6.7
2015-May-22 09:33N 59°01' E 010°19'1514.8
2015-May-22 08:34N 59°02' E 010°47'1313.1
2015-May-22 07:33N 58°56' E 011°10'9 8.5
2015-May-22 06:33N 59°00' E 010°56'1616.2
2015-May-22 05:33N 59°01' E 010°24'9 8.8
2015-May-22 04:33N 59°08' E 010°14'1 1.4
2015-May-22 03:33N 59°06' E 010°14'0 0.0
2015-May-22 02:31N 59°06' E 010°14'0 0.0
2015-May-22 01:32N 59°06' E 010°14'0 0.0
2015-May-22 00:33N 59°06' E 010°14'0 0.0
2015-May-21 23:33N 59°06' E 010°14'0 0.0
2015-May-21 22:31N 59°06' E 010°14'0 0.0
2015-May-21 21:32N 59°06' E 010°14'0 0.0
2015-May-21 20:32N 59°06' E 010°14'0 0.0
2015-May-21 19:30N 59°06' E 010°14'0 0.0
2015-May-21 18:31N 59°06' E 010°14'0 0.0
2015-May-21 17:33N 59°06' E 010°14'1 1.4
2015-May-21 16:34N 59°08' E 010°14'9 8.8
2015-May-21 15:33N 59°01' E 010°25'1616.3
2015-May-21 14:33N 59°00' E 010°57'8 8.2
2015-May-21 13:33N 58°56' E 011°10'1212.1
2015-May-21 12:34N 59°02' E 010°50'1616.2
2015-May-21 11:33N 59°01' E 010°18'7 6.8
2015-May-21 10:33N 59°08' E 010°14'7 6.7
2015-May-21 09:33N 59°01' E 010°19'1514.9
2015-May-21 08:33N 59°02' E 010°47'1313.1
2015-May-21 07:33N 58°56' E 011°10'8 8.2
2015-May-21 06:33N 59°00' E 010°56'1616.2
2015-May-21 05:33N 59°01' E 010°25'9 9.0
2015-May-21 04:33N 59°08' E 010°14'1 1.4
2015-May-21 03:33N 59°06' E 010°14'0 0.0
2015-May-21 02:34N 59°06' E 010°14'0 0.0
2015-May-21 01:34N 59°06' E 010°14'0 0.0
2015-May-21 00:33N 59°06' E 010°14'0 0.0
2015-May-20 23:33N 59°06' E 010°14'0 0.0
2015-May-20 22:33N 59°06' E 010°14'0 0.0
2015-May-20 21:33N 59°06' E 010°14'0 0.0
2015-May-20 20:33N 59°06' E 010°14'315314.2
2015-May-20 19:33N 59°06' E 000°00'315315.2
2015-May-20 18:33N 59°06' E 010°14'0 0.0
2015-May-20 17:33N 59°06' E 010°14'1 1.4
2015-May-20 16:34N 59°08' E 010°14'9 9.2
2015-May-20 15:33N 59°01' E 010°26'1615.8
2015-May-20 14:34N 59°00' E 010°56'8 8.3
2015-May-20 13:33N 58°56' E 011°10'1312.7
2015-May-20 12:33N 59°02' E 010°48'1615.9
2015-May-20 11:33N 59°01' E 010°17'7 6.5
2015-May-20 10:33N 59°08' E 010°14'7 6.8
2015-May-20 09:33N 59°01' E 010°19'1514.9
2015-May-20 08:33N 59°02' E 010°48'1312.5
2015-May-20 07:34N 58°56' E 011°10'8 7.9
2015-May-20 06:33N 59°00' E 010°57'1615.8
2015-May-20 05:33N 59°01' E 010°26'9 9.5
2015-May-20 04:33N 59°08' E 010°14'1 1.3
2015-May-20 03:29N 59°06' E 010°14'0 0.0
2015-May-20 02:30N 59°06' E 010°14'0 0.0
2015-May-20 01:33N 59°06' E 010°14'0 0.0
2015-May-20 00:28N 59°06' E 010°14'0 0.0
2015-May-19 23:32N 59°06' E 010°14'0 0.0
2015-May-19 22:33N 59°06' E 010°14'0 0.0
2015-May-19 21:33N 59°06' E 010°14'0 0.0
2015-May-19 20:31N 59°06' E 010°14'0 0.0
2015-May-19 19:33N 59°06' E 010°14'0 0.0
2015-May-19 18:33N 59°06' E 010°14'0 0.0
2015-May-19 17:33N 59°06' E 010°14'1 1.4
2015-May-19 16:33N 59°08' E 010°14'9 8.6
2015-May-19 15:33N 59°01' E 010°24'1615.9
2015-May-19 14:34N 59°01' E 010°55'9 9.0
2015-May-19 13:33N 58°56' E 011°10'1211.8
2015-May-19 12:34N 59°01' E 010°50'1716.7
2015-May-19 11:33N 59°01' E 010°17'7 6.5
2015-May-19 10:33N 59°08' E 010°14'7 6.7
2015-May-19 09:33N 59°01' E 010°19'1615.8
2015-May-19 08:34N 59°01' E 010°50'1211.9
2015-May-19 07:33N 58°56' E 011°10'1010.2
2015-May-19 06:33N 59°01' E 010°53'1515.0
2015-May-19 05:33N 59°01' E 010°23'8 8.3
2015-May-19 04:32N 59°08' E 010°14'1 1.5
2015-May-19 03:33N 59°06' E 010°14'0 0.0
2015-May-19 02:33N 59°06' E 010°14'0 0.0
2015-May-19 01:33N 59°06' E 010°14'0 0.0
2015-May-19 00:31N 59°06' E 010°14'0 0.0
2015-May-18 23:32N 59°06' E 010°14'0 0.0
2015-May-18 22:32N 59°06' E 010°14'0 0.0
2015-May-18 21:30N 59°06' E 010°14'0 0.0
2015-May-18 20:33N 59°06' E 010°14'0 0.0
2015-May-18 19:33N 59°06' E 010°14'0 0.0
2015-May-18 18:33N 59°06' E 010°14'0 0.0
2015-May-18 17:33N 59°06' E 010°14'1 1.4
2015-May-18 16:33N 59°08' E 010°14'8 8.1
2015-May-18 15:33N 59°01' E 010°23'1616.5
2015-May-18 14:33N 59°00' E 010°55'9 9.0
2015-May-18 13:33N 58°56' E 011°10'1212.1
2015-May-18 12:33N 59°01' E 010°49'1615.9
2015-May-18 11:33N 59°01' E 010°18'7 6.9
2015-May-18 10:33N 59°08' E 010°14'7 6.7
2015-May-18 09:33N 59°01' E 010°19'1515.2
2015-May-18 08:33N 59°01' E 010°49'1212.4
2015-May-18 07:33N 58°56' E 011°10'9 8.5
2015-May-18 06:33N 59°00' E 010°56'1616.5
2015-May-18 05:33N 59°01' E 010°24'9 8.7
2015-May-18 04:33N 59°08' E 010°14'1 1.4
2015-May-18 03:33N 59°06' E 010°14'0 0.0
2015-May-18 02:33N 59°06' E 010°14'0 0.0
2015-May-18 01:31N 59°06' E 010°14'0 0.0
2015-May-18 00:32N 59°06' E 010°14'0 0.0
2015-May-17 23:32N 59°06' E 010°14'0 0.0
2015-May-17 22:33N 59°06' E 010°14'0 0.0
2015-May-17 21:34N 59°06' E 010°14'0 0.0
2015-May-17 20:31N 59°06' E 010°14'0 0.0
2015-May-17 19:26N 59°06' E 010°14'0 0.0
2015-May-17 18:33N 59°06' E 010°14'0 0.0
2015-May-17 17:33N 59°06' E 010°14'1 1.4
2015-May-17 16:33N 59°08' E 010°14'9 9.1
2015-May-17 15:33N 59°01' E 010°26'1615.7
2015-May-17 14:34N 59°00' E 010°56'8 8.3
2015-May-17 13:33N 58°56' E 011°10'1211.8
2015-May-17 12:33N 59°01' E 010°50'1615.7
2015-May-17 11:33N 59°01' E 010°19'7 6.9
2015-May-17 10:33N 59°08' E 010°14'7 6.9
2015-May-17 09:33N 59°01' E 010°19'1515.1
2015-May-17 08:33N 59°02' E 010°49'1212.4
2015-May-17 07:34N 58°56' E 011°10'8 7.7
2015-May-17 06:34N 58°60' E 010°57'1615.9
2015-May-17 05:33N 59°01' E 010°26'10 9.6
2015-May-17 04:33N 59°08' E 010°14'1 1.4
2015-May-17 03:33N 59°06' E 010°14'0 0.0
2015-May-17 02:33N 59°06' E 010°14'0 0.0
2015-May-17 01:33N 59°06' E 010°14'0 0.0
2015-May-17 00:33N 59°06' E 010°14'0 0.0
2015-May-16 23:34N 59°06' E 010°14'0 0.0
2015-May-16 22:33N 59°06' E 010°14'0 0.0
2015-May-16 21:33N 59°06' E 010°14'0 0.0
2015-May-16 20:33N 59°06' E 010°14'0 0.0
2015-May-16 19:33N 59°06' E 010°14'0 0.0
2015-May-16 18:33N 59°06' E 010°14'0 0.0
2015-May-16 17:33N 59°06' E 010°14'1 1.4
2015-May-16 16:32N 59°08' E 010°14'1010.6
2015-May-16 15:33N 59°01' E 010°29'1515.5
2015-May-16 14:33N 58°60' E 010°59'7 7.1
2015-May-16 13:33N 58°56' E 011°10'1111.5
2015-May-16 12:33N 59°01' E 010°50'1616.5
2015-May-16 11:33N 59°01' E 010°18'7 6.7
2015-May-16 10:33N 59°08' E 010°14'7 7.2
2015-May-16 09:33N 59°01' E 010°20'1515.4
2015-May-16 08:33N 59°01' E 010°50'1211.5
2015-May-16 07:32N 58°56' E 011°10'8 8.3
2015-May-16 06:33N 59°00' E 010°57'1616.2
2015-May-16 05:33N 59°01' E 010°25'9 9.0
2015-May-16 04:33N 59°08' E 010°14'1 1.4
2015-May-16 03:33N 59°06' E 010°14'0 0.0
2015-May-16 02:15N 59°06' E 010°14'0 0.0
2015-May-16 01:30N 59°06' E 010°14'0 0.0
2015-May-16 00:31N 59°06' E 010°14'0 0.0
2015-May-15 23:32N 59°06' E 010°14'0 0.0
2015-May-15 22:32N 59°06' E 010°14'0 0.0
2015-May-15 21:24N 59°06' E 010°14'0 0.0
2015-May-15 20:31N 59°06' E 010°14'0 0.0
2015-May-15 19:25N 59°06' E 010°14'0 0.0
2015-May-15 18:34N 59°06' E 010°14'0 0.1
2015-May-15 17:32N 59°06' E 010°14'1 1.4
2015-May-15 16:34N 59°08' E 010°14'10 9.7
2015-May-15 15:33N 59°01' E 010°27'1515.4
2015-May-15 14:33N 59°00' E 010°57'8 8.0
2015-May-15 13:34N 58°56' E 011°10'1111.3
2015-May-15 12:33N 59°01' E 010°51'1616.3
2015-May-15 11:33N 59°01' E 010°19'7 6.5
2015-May-15 10:30N 59°08' E 010°14'6 6.8
2015-May-15 09:33N 59°02' E 010°18'1616.4
2015-May-15 08:33N 59°01' E 010°49'4 1.8
2015-May-15 06:33N 59°00' E 010°56'1716.7
2015-May-15 05:33N 59°01' E 010°24'9 8.7
2015-May-15 04:33N 59°08' E 010°14'1 1.4
2015-May-15 03:33N 59°06' E 010°14'0 0.0
2015-May-15 02:31N 59°06' E 010°14'0 0.0
2015-May-15 00:23N 59°06' E 010°14'0 0.0
2015-May-14 23:24N 59°06' E 010°14'0 0.0
2015-May-14 22:25N 59°06' E 010°14'0 0.0
2015-May-14 21:31N 59°06' E 010°14'  
Track history (hours):
 
Tides and Currents Weather Stations Pressure Air Temp Water Temp Dewpoint Dewpoint Depression Visibility Wind Speed Wind Dir Waves Ship Positions

DucheSS Of Scandinavia

Operator: DFDS A/S

Last reported at 2015-May-24 20:33 UTC. Time now 2015-May-24 21:20 UTC.
Position N 59°06' E 010°14'.

Length 134 m; draft 5.2 m.

Type: Passenger vessel. MMSI: 219002929.

Date/timePositionNaut miles runAvg speedWind from/ knotsBaromVisibWave heightAir tempDewpointWater temp
2015-May-24 20:33N 59°06' E 010°14'0 0.0
2015-May-24 19:33N 59°06' E 010°14'0 0.0
2015-May-24 18:33N 59°06' E 010°14'0 0.0
2015-May-24 17:33N 59°06' E 010°14'1 1.4
2015-May-24 16:33N 59°08' E 010°14'1010.1
2015-May-24 15:33N 59°01' E 010°28'1515.1
2015-May-24 14:33N 59°00' E 010°57'8 7.9
2015-May-24 13:33N 58°56' E 011°10'1111.0
2015-May-24 12:33N 59°01' E 010°51'1716.9
2015-May-24 11:33N 59°01' E 010°18'7 6.8
2015-May-24 10:33N 59°08' E 010°14'7 7.0
2015-May-24 09:33N 59°01' E 010°20'1515.2
2015-May-24 08:33N 59°01' E 010°49'1212.0
2015-May-24 07:33N 58°56' E 011°10'8 8.5
2015-May-24 06:33N 59°00' E 010°56'1615.9
2015-May-24 05:33N 59°01' E 010°25'9 9.0
2015-May-24 04:33N 59°08' E 010°14'1 1.4
2015-May-24 03:33N 59°06' E 010°14'0 0.0
2015-May-24 02:33N 59°06' E 010°14'0 0.0
2015-May-24 01:33N 59°06' E 010°14'0 0.0
2015-May-24 00:33N 59°06' E 010°14'0 0.0
2015-May-23 23:33N 59°06' E 010°14'0 0.0
2015-May-23 22:33N 59°06' E 010°14'0 0.0
2015-May-23 21:33N 59°06' E 010°14'0 0.0
2015-May-23 20:33N 59°06' E 010°14'0 0.0
2015-May-23 19:33N 59°06' E 010°14'0 0.0
2015-May-23 18:33N 59°06' E 010°14'0 0.0
2015-May-23 17:33N 59°06' E 010°14'1 1.4
2015-May-23 16:33N 59°08' E 010°14'10 9.6
2015-May-23 15:33N 59°01' E 010°27'1514.6
2015-May-23 14:33N 59°00' E 010°55'9 8.9
2015-May-23 13:33N 58°56' E 011°10'1212.1
2015-May-23 12:33N 59°01' E 010°49'1616.2
2015-May-23 11:33N 59°01' E 010°18'7 6.6
2015-May-23 10:33N 59°08' E 010°14'8 8.3
2015-May-23 09:33N 59°01' E 010°23'1616.1
2015-May-23 08:34N 59°00' E 010°55'9 9.2
2015-May-23 07:33N 58°56' E 011°10'1211.9
2015-May-23 06:34N 59°01' E 010°49'1716.6
2015-May-23 05:33N 59°01' E 010°17'6 6.4
2015-May-23 04:33N 59°08' E 010°14'1 1.4
2015-May-23 03:33N 59°06' E 010°14'0 0.0
2015-May-23 02:32N 59°06' E 010°14'0 0.0
2015-May-23 01:33N 59°06' E 010°14'0 0.0
2015-May-23 00:25N 59°06' E 010°14'0 0.0
2015-May-22 23:31N 59°06' E 010°14'0 0.0
2015-May-22 22:32N 59°06' E 010°14'0 0.0
2015-May-22 21:30N 59°06' E 010°14'0 0.0
2015-May-22 20:33N 59°06' E 010°14'0 0.0
2015-May-22 19:31N 59°06' E 010°14'0 0.0
2015-May-22 18:33N 59°06' E 010°14'0 0.0
2015-May-22 17:33N 59°06' E 010°14'1 1.0
2015-May-22 16:33N 59°07' E 010°14'1111.0
2015-May-22 15:33N 59°00' E 010°31'1413.9
2015-May-22 14:34N 59°00' E 010°57'8 7.8
2015-May-22 13:34N 58°56' E 011°10'1212.3
2015-May-22 12:33N 59°02' E 010°49'1616.5
2015-May-22 11:33N 59°01' E 010°17'6 6.4
2015-May-22 10:34N 59°08' E 010°14'7 6.7
2015-May-22 09:33N 59°01' E 010°19'1514.8
2015-May-22 08:34N 59°02' E 010°47'1313.1
2015-May-22 07:33N 58°56' E 011°10'9 8.5
2015-May-22 06:33N 59°00' E 010°56'1616.2
2015-May-22 05:33N 59°01' E 010°24'9 8.8
2015-May-22 04:33N 59°08' E 010°14'1 1.4
2015-May-22 03:33N 59°06' E 010°14'0 0.0
2015-May-22 02:31N 59°06' E 010°14'0 0.0
2015-May-22 01:32N 59°06' E 010°14'0 0.0
2015-May-22 00:33N 59°06' E 010°14'0 0.0
2015-May-21 23:33N 59°06' E 010°14'0 0.0
2015-May-21 22:31N 59°06' E 010°14'0 0.0
2015-May-21 21:32N 59°06' E 010°14'0 0.0
2015-May-21 20:32N 59°06' E 010°14'0 0.0
2015-May-21 19:30N 59°06' E 010°14'0 0.0
2015-May-21 18:31N 59°06' E 010°14'0 0.0
2015-May-21 17:33N 59°06' E 010°14'1 1.4
2015-May-21 16:34N 59°08' E 010°14'9 8.8
2015-May-21 15:33N 59°01' E 010°25'1616.3
2015-May-21 14:33N 59°00' E 010°57'8 8.2
2015-May-21 13:33N 58°56' E 011°10'1212.1
2015-May-21 12:34N 59°02' E 010°50'1616.2
2015-May-21 11:33N 59°01' E 010°18'7 6.8
2015-May-21 10:33N 59°08' E 010°14'7 6.7
2015-May-21 09:33N 59°01' E 010°19'1514.9
2015-May-21 08:33N 59°02' E 010°47'1313.1
2015-May-21 07:33N 58°56' E 011°10'8 8.2
2015-May-21 06:33N 59°00' E 010°56'1616.2
2015-May-21 05:33N 59°01' E 010°25'9 9.0
2015-May-21 04:33N 59°08' E 010°14'1 1.4
2015-May-21 03:33N 59°06' E 010°14'0 0.0
2015-May-21 02:34N 59°06' E 010°14'0 0.0
2015-May-21 01:34N 59°06' E 010°14'0 0.0
2015-May-21 00:33N 59°06' E 010°14'0 0.0
2015-May-20 23:33N 59°06' E 010°14'0 0.0
2015-May-20 22:33N 59°06' E 010°14'0 0.0
2015-May-20 21:33N 59°06' E 010°14'0 0.0
2015-May-20 20:33N 59°06' E 010°14'315314.2
2015-May-20 19:33N 59°06' E 000°00'315315.2
2015-May-20 18:33N 59°06' E 010°14'0 0.0
2015-May-20 17:33N 59°06' E 010°14'1 1.4
2015-May-20 16:34N 59°08' E 010°14'9 9.2
2015-May-20 15:33N 59°01' E 010°26'1615.8
2015-May-20 14:34N 59°00' E 010°56'8 8.3
2015-May-20 13:33N 58°56' E 011°10'1312.7
2015-May-20 12:33N 59°02' E 010°48'1615.9
2015-May-20 11:33N 59°01' E 010°17'7 6.5
2015-May-20 10:33N 59°08' E 010°14'7 6.8
2015-May-20 09:33N 59°01' E 010°19'1514.9
2015-May-20 08:33N 59°02' E 010°48'1312.5
2015-May-20 07:34N 58°56' E 011°10'8 7.9
2015-May-20 06:33N 59°00' E 010°57'1615.8
2015-May-20 05:33N 59°01' E 010°26'9 9.5
2015-May-20 04:33N 59°08' E 010°14'1 1.3
2015-May-20 03:29N 59°06' E 010°14'0 0.0
2015-May-20 02:30N 59°06' E 010°14'0 0.0
2015-May-20 01:33N 59°06' E 010°14'0 0.0
2015-May-20 00:28N 59°06' E 010°14'0 0.0
2015-May-19 23:32N 59°06' E 010°14'0 0.0
2015-May-19 22:33N 59°06' E 010°14'0 0.0
2015-May-19 21:33N 59°06' E 010°14'0 0.0
2015-May-19 20:31N 59°06' E 010°14'0 0.0
2015-May-19 19:33N 59°06' E 010°14'0 0.0
2015-May-19 18:33N 59°06' E 010°14'0 0.0
2015-May-19 17:33N 59°06' E 010°14'1 1.4
2015-May-19 16:33N 59°08' E 010°14'9 8.6
2015-May-19 15:33N 59°01' E 010°24'1615.9
2015-May-19 14:34N 59°01' E 010°55'9 9.0
2015-May-19 13:33N 58°56' E 011°10'1211.8
2015-May-19 12:34N 59°01' E 010°50'1716.7
2015-May-19 11:33N 59°01' E 010°17'7 6.5
2015-May-19 10:33N 59°08' E 010°14'7 6.7
2015-May-19 09:33N 59°01' E 010°19'1615.8
2015-May-19 08:34N 59°01' E 010°50'1211.9
2015-May-19 07:33N 58°56' E 011°10'1010.2
2015-May-19 06:33N 59°01' E 010°53'1515.0
2015-May-19 05:33N 59°01' E 010°23'8 8.3
2015-May-19 04:32N 59°08' E 010°14'1 1.5
2015-May-19 03:33N 59°06' E 010°14'0 0.0
2015-May-19 02:33N 59°06' E 010°14'0 0.0
2015-May-19 01:33N 59°06' E 010°14'0 0.0
2015-May-19 00:31N 59°06' E 010°14'0 0.0
2015-May-18 23:32N 59°06' E 010°14'0 0.0
2015-May-18 22:32N 59°06' E 010°14'0 0.0
2015-May-18 21:30N 59°06' E 010°14'0 0.0
2015-May-18 20:33N 59°06' E 010°14'0 0.0
2015-May-18 19:33N 59°06' E 010°14'0 0.0
2015-May-18 18:33N 59°06' E 010°14'0 0.0
2015-May-18 17:33N 59°06' E 010°14'1 1.4
2015-May-18 16:33N 59°08' E 010°14'8 8.1
2015-May-18 15:33N 59°01' E 010°23'1616.5
2015-May-18 14:33N 59°00' E 010°55'9 9.0
2015-May-18 13:33N 58°56' E 011°10'1212.1
2015-May-18 12:33N 59°01' E 010°49'1615.9
2015-May-18 11:33N 59°01' E 010°18'7 6.9
2015-May-18 10:33N 59°08' E 010°14'7 6.7
2015-May-18 09:33N 59°01' E 010°19'1515.2
2015-May-18 08:33N 59°01' E 010°49'1212.4
2015-May-18 07:33N 58°56' E 011°10'9 8.5
2015-May-18 06:33N 59°00' E 010°56'1616.5
2015-May-18 05:33N 59°01' E 010°24'9 8.7
2015-May-18 04:33N 59°08' E 010°14'1 1.4
2015-May-18 03:33N 59°06' E 010°14'0 0.0
2015-May-18 02:33N 59°06' E 010°14'0 0.0
2015-May-18 01:31N 59°06' E 010°14'0 0.0
2015-May-18 00:32N 59°06' E 010°14'0 0.0
2015-May-17 23:32N 59°06' E 010°14'0 0.0
2015-May-17 22:33N 59°06' E 010°14'0 0.0
2015-May-17 21:34N 59°06' E 010°14'0 0.0
2015-May-17 20:31N 59°06' E 010°14'0 0.0
2015-May-17 19:26N 59°06' E 010°14'0 0.0
2015-May-17 18:33N 59°06' E 010°14'0 0.0
2015-May-17 17:33N 59°06' E 010°14'1 1.4
2015-May-17 16:33N 59°08' E 010°14'9 9.1
2015-May-17 15:33N 59°01' E 010°26'1615.7
2015-May-17 14:34N 59°00' E 010°56'8 8.3
2015-May-17 13:33N 58°56' E 011°10'1211.8
2015-May-17 12:33N 59°01' E 010°50'1615.7
2015-May-17 11:33N 59°01' E 010°19'7 6.9
2015-May-17 10:33N 59°08' E 010°14'7 6.9
2015-May-17 09:33N 59°01' E 010°19'1515.1
2015-May-17 08:33N 59°02' E 010°49'1212.4
2015-May-17 07:34N 58°56' E 011°10'8 7.7
2015-May-17 06:34N 58°60' E 010°57'1615.9
2015-May-17 05:33N 59°01' E 010°26'10 9.6
2015-May-17 04:33N 59°08' E 010°14'1 1.4
2015-May-17 03:33N 59°06' E 010°14'0 0.0
2015-May-17 02:33N 59°06' E 010°14'0 0.0
2015-May-17 01:33N 59°06' E 010°14'0 0.0
2015-May-17 00:33N 59°06' E 010°14'0 0.0
2015-May-16 23:34N 59°06' E 010°14'0 0.0
2015-May-16 22:33N 59°06' E 010°14'0 0.0
2015-May-16 21:33N 59°06' E 010°14'0 0.0
2015-May-16 20:33N 59°06' E 010°14'0 0.0
2015-May-16 19:33N 59°06' E 010°14'0 0.0
2015-May-16 18:33N 59°06' E 010°14'0 0.0
2015-May-16 17:33N 59°06' E 010°14'1 1.4
2015-May-16 16:32N 59°08' E 010°14'1010.6
2015-May-16 15:33N 59°01' E 010°29'1515.5
2015-May-16 14:33N 58°60' E 010°59'7 7.1
2015-May-16 13:33N 58°56' E 011°10'1111.5
2015-May-16 12:33N 59°01' E 010°50'1616.5
2015-May-16 11:33N 59°01' E 010°18'7 6.7
2015-May-16 10:33N 59°08' E 010°14'7 7.2
2015-May-16 09:33N 59°01' E 010°20'1515.4
2015-May-16 08:33N 59°01' E 010°50'1211.5
2015-May-16 07:32N 58°56' E 011°10'8 8.3
2015-May-16 06:33N 59°00' E 010°57'1616.2
2015-May-16 05:33N 59°01' E 010°25'9 9.0
2015-May-16 04:33N 59°08' E 010°14'1 1.4
2015-May-16 03:33N 59°06' E 010°14'0 0.0
2015-May-16 02:15N 59°06' E 010°14'0 0.0
2015-May-16 01:30N 59°06' E 010°14'0 0.0
2015-May-16 00:31N 59°06' E 010°14'0 0.0
2015-May-15 23:32N 59°06' E 010°14'0 0.0
2015-May-15 22:32N 59°06' E 010°14'0 0.0
2015-May-15 21:24N 59°06' E 010°14'0 0.0
2015-May-15 20:31N 59°06' E 010°14'0 0.0
2015-May-15 19:25N 59°06' E 010°14'0 0.0
2015-May-15 18:34N 59°06' E 010°14'0 0.1
2015-May-15 17:32N 59°06' E 010°14'1 1.4
2015-May-15 16:34N 59°08' E 010°14'10 9.7
2015-May-15 15:33N 59°01' E 010°27'1515.4
2015-May-15 14:33N 59°00' E 010°57'8 8.0
2015-May-15 13:34N 58°56' E 011°10'1111.3
2015-May-15 12:33N 59°01' E 010°51'1616.3
2015-May-15 11:33N 59°01' E 010°19'7 6.5
2015-May-15 10:30N 59°08' E 010°14'6 6.8
2015-May-15 09:33N 59°02' E 010°18'1616.4
2015-May-15 08:33N 59°01' E 010°49'4 1.8
2015-May-15 06:33N 59°00' E 010°56'1716.7
2015-May-15 05:33N 59°01' E 010°24'9 8.7
2015-May-15 04:33N 59°08' E 010°14'1 1.4
2015-May-15 03:33N 59°06' E 010°14'0 0.0
2015-May-15 02:31N 59°06' E 010°14'0 0.0
2015-May-15 00:23N 59°06' E 010°14'0 0.0
2015-May-14 23:24N 59°06' E 010°14'0 0.0
2015-May-14 22:25N 59°06' E 010°14'0 0.0
2015-May-14 21:31N 59°06' E 010°14'  

Dump ship's entire track history